createdAt,value
2022-11-30T00:00:59.476Z,94662.84
2022-11-30T00:03:26.077Z,94671.59
2022-11-30T00:05:52.648Z,94663.34
2022-11-30T00:08:19.024Z,94680.38
2022-11-30T00:10:45.421Z,94694.91
2022-11-30T00:13:11.801Z,94680.66
2022-11-30T00:15:38.228Z,94672.06
2022-11-30T00:18:04.646Z,94670.59
2022-11-30T00:20:31.041Z,94665.41
2022-11-30T00:22:57.574Z,94668.97
2022-11-30T00:25:24.545Z,94647.59
2022-11-30T00:27:50.886Z,94647.28
2022-11-30T00:30:17.237Z,94668.66
2022-11-30T00:32:43.619Z,94671.13
2022-11-30T00:35:09.967Z,94669.66
2022-11-30T00:37:36.337Z,94657.16
2022-11-30T00:40:02.755Z,94643.88
2022-11-30T00:42:29.122Z,94644.03
2022-11-30T00:44:55.505Z,94649.53
2022-11-30T00:47:21.860Z,94648.22
2022-11-30T00:49:48.204Z,94633.97
2022-11-30T00:52:14.580Z,94622.31
2022-11-30T00:54:40.924Z,94615.84
2022-11-30T00:57:07.286Z,94622.66
2022-11-30T00:59:33.635Z,94635.78
2022-11-30T01:02:00.047Z,94634.97
2022-11-30T01:04:26.397Z,94628.69
2022-11-30T01:06:52.748Z,94641.78
2022-11-30T01:09:19.146Z,94648.91
2022-11-30T01:11:45.492Z,94659.63
2022-11-30T01:14:11.868Z,94667.41
2022-11-30T01:16:38.360Z,94652.16
2022-11-30T01:19:04.807Z,94646.97
2022-11-30T01:21:31.276Z,94652.16
2022-11-30T01:23:57.694Z,94661.53
2022-11-30T01:26:24.114Z,94670.59
2022-11-30T01:28:51.734Z,94654.72
2022-11-30T01:31:18.176Z,94667.34
2022-11-30T01:33:48.592Z,94646.28
2022-11-30T01:36:16.769Z,94632.50
2022-11-30T01:38:44.853Z,94616.47
2022-11-30T01:41:12.530Z,94613.53
2022-11-30T01:43:42.377Z,94605.75
2022-11-30T01:46:39.224Z,94583.56
2022-11-30T01:49:08.597Z,94593.44
2022-11-30T01:51:57.526Z,94583.72
2022-11-30T01:54:32.455Z,94579.66
2022-11-30T01:57:22.853Z,94565.56
2022-11-30T01:59:49.468Z,94557.47
2022-11-30T02:02:16.791Z,94546.13
2022-11-30T02:04:43.182Z,94551.59
2022-11-30T02:07:09.630Z,94546.25
2022-11-30T02:09:40.412Z,94539.78
2022-11-30T02:12:07.902Z,94550.16
2022-11-30T02:14:34.253Z,94538.34
2022-11-30T02:17:18.940Z,94540.28
2022-11-30T02:19:58.805Z,94529.56
2022-11-30T02:23:02.968Z,94551.28
2022-11-30T02:25:35.385Z,94526.66
2022-11-30T02:28:16.875Z,94533.78
2022-11-30T02:30:44.573Z,94519.53
2022-11-30T02:33:13.499Z,94508.97
2022-11-30T02:35:41.196Z,94514.34
2022-11-30T02:38:07.554Z,94507.19
2022-11-30T02:40:33.946Z,94506.22
2022-11-30T02:43:00.419Z,94501.03
2022-11-30T02:45:31.500Z,94487.75
2022-11-30T02:48:10.612Z,94478.84
2022-11-30T02:50:42.613Z,94497.47
2022-11-30T02:53:09.155Z,94493.25
2022-11-30T02:55:35.523Z,94505.91
2022-11-30T02:58:01.880Z,94502.50
2022-11-30T03:00:28.264Z,94493.59
2022-11-30T03:02:55.279Z,94498.13
2022-11-30T03:05:21.694Z,94488.41
2022-11-30T03:07:48.099Z,94483.22
2022-11-30T03:10:14.540Z,94481.25
2022-11-30T03:12:40.890Z,94478.66
2022-11-30T03:15:07.488Z,94479.00
2022-11-30T03:17:33.874Z,94501.03
2022-11-30T03:20:00.263Z,94499.09
2022-11-30T03:22:26.686Z,94491.94
2022-11-30T03:24:53.092Z,94493.75
2022-11-30T03:27:19.625Z,94495.84
2022-11-30T03:29:45.983Z,94485.28
2022-11-30T03:32:12.357Z,94470.25
2022-11-30T03:34:38.702Z,94486.75
2022-11-30T03:37:05.078Z,94470.88
2022-11-30T03:39:31.426Z,94475.75
2022-11-30T03:41:57.774Z,94477.69
2022-11-30T03:44:24.140Z,94494.56
2022-11-30T03:46:50.546Z,94483.88
2022-11-30T03:49:16.979Z,94475.75
2022-11-30T03:51:43.343Z,94481.44
2022-11-30T03:54:09.677Z,94477.56
2022-11-30T03:56:36.048Z,94476.41
2022-11-30T03:59:02.427Z,94471.53
2022-11-30T04:01:28.885Z,94490.19
2022-11-30T04:03:55.311Z,94485.50
2022-11-30T04:06:21.679Z,94489.06
2022-11-30T04:08:48.023Z,94489.06
2022-11-30T04:11:14.572Z,94476.41
2022-11-30T04:13:41.339Z,94472.06
2022-11-30T04:16:08.097Z,94464.09
2022-11-30T04:18:35.068Z,94469.63
2022-11-30T04:21:01.527Z,94480.31
2022-11-30T04:23:32.949Z,94482.25
2022-11-30T04:25:59.440Z,94481.59
2022-11-30T04:28:25.794Z,94486.13
2022-11-30T04:30:53.238Z,94497.66
2022-11-30T04:33:19.676Z,94487.75
2022-11-30T04:35:48.116Z,94500.06
2022-11-30T04:38:14.503Z,94493.25
2022-11-30T04:40:41.696Z,94491.63
2022-11-30T04:43:08.287Z,94495.53
2022-11-30T04:45:35.764Z,94500.84
2022-11-30T04:48:02.835Z,94492.28
2022-11-30T04:50:29.226Z,94502.16
2022-11-30T04:52:56.225Z,94505.75
2022-11-30T04:55:22.709Z,94542.34
2022-11-30T04:57:49.210Z,94544.16
2022-11-30T05:00:16.674Z,94545.78
2022-11-30T05:02:47.553Z,94556.47
2022-11-30T05:05:18.451Z,94573.81
2022-11-30T05:07:44.929Z,94566.84
2022-11-30T05:10:11.313Z,94579.97
2022-11-30T05:12:37.672Z,94573.34
2022-11-30T05:15:04.440Z,94576.91
2022-11-30T05:17:30.788Z,94536.72
2022-11-30T05:19:57.125Z,94546.09
2022-11-30T05:22:23.478Z,94527.63
2022-11-30T05:24:49.960Z,94541.72
2022-11-30T05:27:22.202Z,94533.94
2022-11-30T05:29:48.971Z,94520.66
2022-11-30T05:32:15.360Z,94534.09
2022-11-30T05:34:50.567Z,94474.28
2022-11-30T05:37:17.923Z,94433.91
2022-11-30T05:39:44.272Z,94403.28
2022-11-30T05:42:10.740Z,94349.94
2022-11-30T05:44:37.180Z,94276.34
2022-11-30T05:47:03.627Z,94186.56
2022-11-30T05:49:30.117Z,94160.28
2022-11-30T05:51:56.594Z,94106.00
2022-11-30T05:54:22.960Z,94087.00
2022-11-30T05:56:54.427Z,94074.03
2022-11-30T05:59:21.520Z,94053.78
2022-11-30T06:01:47.972Z,94023.47
2022-11-30T06:04:14.452Z,94005.59
2022-11-30T06:06:40.820Z,94000.41
2022-11-30T06:09:07.184Z,93999.63
2022-11-30T06:11:33.618Z,94000.75
2022-11-30T06:13:59.996Z,93979.31
2022-11-30T06:16:26.400Z,93979.31
2022-11-30T06:18:53.400Z,93963.41
2022-11-30T06:21:24.150Z,93972.16
2022-11-30T06:23:51.385Z,93962.25
2022-11-30T06:26:17.736Z,93973.78
2022-11-30T06:28:47.850Z,93968.25
2022-11-30T06:31:15.131Z,93967.91
2022-11-30T06:33:41.552Z,93984.16
2022-11-30T06:36:08.169Z,93988.38
2022-11-30T06:38:34.566Z,93985.41
2022-11-30T06:41:08.457Z,93996.16
2022-11-30T06:43:35.930Z,93982.47
2022-11-30T06:46:03.485Z,93995.78
2022-11-30T06:48:30.005Z,94006.16
2022-11-30T06:50:56.415Z,94008.59
2022-11-30T06:53:22.777Z,94016.75
2022-11-30T06:55:49.131Z,94016.09
2022-11-30T06:58:15.500Z,93998.03
2022-11-30T07:00:42.715Z,93995.44
2022-11-30T07:03:10.492Z,93999.03
2022-11-30T07:05:41.042Z,93996.44
2022-11-30T07:08:07.399Z,93993.84
2022-11-30T07:10:33.849Z,93988.66
2022-11-30T07:13:00.606Z,93974.97
2022-11-30T07:15:26.950Z,93970.44
2022-11-30T07:17:53.323Z,93980.72
2022-11-30T07:20:19.663Z,93971.59
2022-11-30T07:22:46.059Z,93964.59
2022-11-30T07:25:31.131Z,93977.28
2022-11-30T07:27:57.492Z,93949.03
2022-11-30T07:30:23.833Z,93956.38
2022-11-30T07:32:50.258Z,93957.88
2022-11-30T07:35:16.740Z,93935.78
2022-11-30T07:37:43.089Z,93919.22
2022-11-30T07:40:09.796Z,93908.50
2022-11-30T07:42:36.149Z,93899.75
2022-11-30T07:45:02.523Z,93879.81
2022-11-30T07:47:28.882Z,93857.88
2022-11-30T07:49:55.278Z,93854.66
2022-11-30T07:52:21.794Z,93841.41
2022-11-30T07:54:48.521Z,93833.63
2022-11-30T07:57:15.067Z,93803.91
2022-11-30T07:59:41.476Z,93797.50
2022-11-30T08:02:10.406Z,93783.06
2022-11-30T08:04:36.881Z,93739.63
2022-11-30T08:07:03.282Z,93732.81
2022-11-30T08:09:29.624Z,93722.44
2022-11-30T08:11:55.974Z,93707.50
2022-11-30T08:14:22.333Z,93694.53
2022-11-30T08:16:49.020Z,93664.63
2022-11-30T08:19:15.525Z,93609.56
2022-11-30T08:21:41.891Z,93589.16
2022-11-30T08:24:09.838Z,93554.88
2022-11-30T08:26:36.318Z,93541.28
2022-11-30T08:29:02.678Z,93501.44
2022-11-30T08:31:33.859Z,93481.50
2022-11-30T08:34:18.587Z,93457.59
2022-11-30T08:36:47.264Z,93460.69
2022-11-30T08:39:18.103Z,93450.75
2022-11-30T08:41:44.473Z,93416.47
2022-11-30T08:44:11.058Z,93408.88
2022-11-30T08:46:53.859Z,93388.53
2022-11-30T08:49:22.919Z,93367.00
2022-11-30T08:54:38.978Z,93349.06
2022-11-30T08:57:05.319Z,93333.50
2022-11-30T08:59:32.034Z,93338.28
2022-11-30T09:01:58.430Z,93339.47
2022-11-30T09:04:24.910Z,93324.53
2022-11-30T09:06:51.313Z,93315.09
2022-11-30T09:09:17.656Z,93293.56
2022-11-30T09:11:44.046Z,93256.47
2022-11-30T09:14:10.470Z,93246.28
2022-11-30T09:16:36.832Z,93240.06
2022-11-30T09:19:03.512Z,93246.03
2022-11-30T09:21:30.406Z,93248.03
2022-11-30T09:23:56.976Z,93240.44
2022-11-30T09:26:25.114Z,93209.72
2022-11-30T09:28:51.836Z,93164.63
2022-11-30T09:31:28.119Z,93133.91
2022-11-30T09:33:58.066Z,93091.00
2022-11-30T09:36:27.125Z,93084.81
2022-11-30T09:38:54.143Z,93059.06
2022-11-30T09:41:23.212Z,93056.84
2022-11-30T09:43:52.588Z,93037.28
2022-11-30T09:46:18.997Z,93041.09
2022-11-30T09:48:54.344Z,93031.53
2022-11-30T09:51:48.873Z,92996.97
2022-11-30T09:54:16.830Z,92985.00
2022-11-30T09:56:43.792Z,92974.44
2022-11-30T09:59:21.101Z,92960.06
2022-11-30T10:01:52.072Z,92961.84
2022-11-30T10:04:29.768Z,92941.47
2022-11-30T10:07:04.396Z,92922.91
2022-11-30T10:09:40.477Z,92897.16
2022-11-30T10:12:36.272Z,92906.97
2022-11-30T10:15:05.433Z,92903.56
2022-11-30T10:17:46.408Z,92919.50
2022-11-30T10:20:28.028Z,92911.34
2022-11-30T10:23:07.500Z,92970.22
2022-11-30T10:25:42.971Z,92964.25
2022-11-30T10:28:45.711Z,92958.25
2022-11-30T10:31:07.740Z,92990.59
2022-11-30T10:33:38.835Z,92991.97
2022-11-30T10:36:15.017Z,92976.03
2022-11-30T10:38:44.853Z,92975.03
2022-11-30T10:41:21.621Z,92987.81
2022-11-30T10:44:09.723Z,92987.81
2022-11-30T10:46:43.791Z,92958.63
2022-11-30T10:49:13.424Z,92945.28
2022-11-30T10:51:41.522Z,92944.28
2022-11-30T10:54:15.342Z,92953.44
2022-11-30T10:56:41.782Z,92967.22
2022-11-30T10:59:29.297Z,92962.63
2022-11-30T11:01:55.703Z,92984.19
2022-11-30T11:04:25.774Z,92960.66
2022-11-30T11:07:01.490Z,92956.69
2022-11-30T11:09:40.650Z,92960.28
2022-11-30T11:12:13.325Z,92945.88
2022-11-30T11:14:39.696Z,92956.69
2022-11-30T11:17:21.724Z,92979.03
2022-11-30T11:19:48.896Z,92982.22
2022-11-30T11:22:29.702Z,92989.41
2022-11-30T11:25:09.037Z,93002.41
2022-11-30T11:27:39.816Z,93033.13
2022-11-30T11:30:35.925Z,93012.97
2022-11-30T11:33:11.886Z,93020.56
2022-11-30T11:35:42.278Z,93024.56
2022-11-30T11:38:30.899Z,93028.94
2022-11-30T11:41:02.371Z,93032.53
2022-11-30T11:43:31.188Z,93031.75
2022-11-30T11:46:17.868Z,93029.38
2022-11-30T11:49:07.903Z,93027.34
2022-11-30T11:51:36.322Z,93052.06
2022-11-30T11:54:24.608Z,93037.16
2022-11-30T11:56:50.976Z,93028.94
2022-11-30T11:59:54.674Z,93032.53
2022-11-30T12:02:31.141Z,93025.75
2022-11-30T12:05:16.154Z,93028.94
2022-11-30T12:07:48.655Z,93007.78
2022-11-30T12:13:19.093Z,93012.97
2022-11-30T12:16:07.583Z,93024.16
2022-11-30T12:18:42.091Z,93029.38
2022-11-30T12:21:11.680Z,93018.56
2022-11-30T12:23:50.035Z,92995.41
2022-11-30T12:26:37.129Z,92979.41
2022-11-30T12:29:29.760Z,92999.00
2022-11-30T12:32:08.442Z,93007.78
2022-11-30T12:34:56.075Z,93002.97
2022-11-30T12:37:59.963Z,93007.94
2022-11-30T12:40:35.317Z,93028.13
2022-11-30T12:43:07.202Z,93018.13
2022-11-30T12:45:43.201Z,93015.16
2022-11-30T12:48:28.046Z,92999.22
2022-11-30T12:51:03.820Z,92981.25
2022-11-30T12:53:35.244Z,92973.03
2022-11-30T12:56:11.146Z,92988.63
2022-11-30T12:58:42.545Z,92991.78
2022-11-30T13:01:44.115Z,92995.78
2022-11-30T13:04:27.309Z,92987.81
2022-11-30T13:07:11.693Z,93017.34
2022-11-30T13:09:45.481Z,93002.19
2022-11-30T13:12:13.803Z,93005.59
2022-11-30T13:14:40.560Z,92997.38
2022-11-30T13:17:11.751Z,92990.19
2022-11-30T13:20:04.542Z,92972.63
2022-11-30T13:22:52.988Z,92969.81
2022-11-30T13:26:05.769Z,92972.63
2022-11-30T13:28:35.767Z,92950.69
2022-11-30T13:31:27.774Z,92970.25
2022-11-30T13:33:54.270Z,92976.25
2022-11-30T13:36:35.727Z,92977.44
2022-11-30T13:39:14.353Z,92991.44
2022-11-30T13:41:40.724Z,92988.84
2022-11-30T13:44:32.963Z,93001.81
2022-11-30T13:47:23.511Z,92973.47
2022-11-30T13:49:54.934Z,92988.84
2022-11-30T13:52:44.716Z,93019.72
2022-11-30T13:55:35.955Z,93036.50
2022-11-30T13:58:05.703Z,93036.31
2022-11-30T14:00:32.088Z,93040.75
2022-11-30T14:03:22.615Z,93058.66
2022-11-30T14:05:53.105Z,93066.06
2022-11-30T14:08:22.302Z,93090.63
2022-11-30T14:10:49.603Z,93102.41
2022-11-30T14:13:25.149Z,93130.75
2022-11-30T14:15:55.349Z,93124.75
2022-11-30T14:18:24.056Z,93164.50
2022-11-30T14:21:00.683Z,93173.50
2022-11-30T14:24:05.648Z,93189.44
2022-11-30T14:26:39.928Z,93203.03
2022-11-30T14:29:12.402Z,93243.34
2022-11-30T14:32:10.149Z,93261.72
2022-11-30T14:34:39.065Z,93302.84
2022-11-30T14:37:23.264Z,93324.78
2022-11-30T14:39:50.452Z,93358.06
2022-11-30T14:42:25.088Z,93372.47
2022-11-30T14:44:51.890Z,93392.44
2022-11-30T14:47:23.614Z,93416.41
2022-11-30T14:49:55.016Z,93427.00
2022-11-30T14:52:45.913Z,93434.81
2022-11-30T14:55:27.645Z,93477.69
2022-11-30T14:58:06.892Z,93512.44
2022-11-30T15:00:37.732Z,93529.59
2022-11-30T15:03:05.181Z,93559.16
2022-11-30T15:05:31.655Z,93600.59
2022-11-30T15:07:58.185Z,93639.72
2022-11-30T15:10:34.150Z,93663.28
2022-11-30T15:13:00.620Z,93679.47
2022-11-30T15:15:27.817Z,93701.81
2022-11-30T15:17:55.101Z,93708.09
2022-11-30T15:20:37.705Z,93741.56
2022-11-30T15:23:04.074Z,93776.28
2022-11-30T15:25:37.989Z,93798.66
2022-11-30T15:28:05.028Z,93816.66
2022-11-30T15:30:33.036Z,93824.53
2022-11-30T15:32:59.385Z,93850.50
2022-11-30T15:35:34.330Z,93894.03
2022-11-30T15:38:24.438Z,93927.50
2022-11-30T15:40:54.573Z,93941.13
2022-11-30T15:43:23.861Z,93973.53
2022-11-30T15:45:57.720Z,93990.72
2022-11-30T15:48:29.949Z,94019.63
2022-11-30T15:50:56.544Z,94075.16
2022-11-30T15:53:30.996Z,94099.47
2022-11-30T15:55:59.524Z,94111.31
2022-11-30T15:58:33.203Z,94169.25
2022-11-30T16:01:00.599Z,94166.97
2022-11-30T16:03:26.985Z,94194.53
2022-11-30T16:05:57.955Z,94220.81
2022-11-30T16:08:24.589Z,94255.88
2022-11-30T16:10:51.233Z,94282.13
2022-11-30T16:13:18.826Z,94304.50
2022-11-30T16:15:46.807Z,94310.69
2022-11-30T16:18:26.161Z,94317.16
2022-11-30T16:20:58.508Z,94334.19
2022-11-30T16:23:25.878Z,94342.59
2022-11-30T16:25:52.371Z,94380.72
2022-11-30T16:28:19.105Z,94416.25
2022-11-30T16:30:45.782Z,94422.56
2022-11-30T16:33:17.372Z,94436.53
2022-11-30T16:35:53.287Z,94461.97
2022-11-30T16:38:19.796Z,94465.53
2022-11-30T16:40:46.194Z,94480.94
2022-11-30T16:43:12.644Z,94508.03
2022-11-30T16:45:39.503Z,94524.75
2022-11-30T16:48:06.424Z,94551.34
2022-11-30T16:50:34.598Z,94555.56
2022-11-30T16:53:01.875Z,94565.94
2022-11-30T16:55:30.760Z,94590.59
2022-11-30T16:57:57.329Z,94618.78
2022-11-30T17:00:23.787Z,94639.53
2022-11-30T17:03:09.996Z,94644.09
2022-11-30T17:05:36.511Z,94652.22
2022-11-30T17:08:03.116Z,94680.28
2022-11-30T17:10:29.578Z,94711.13
2022-11-30T17:12:55.935Z,94743.19
2022-11-30T17:15:23.193Z,94763.16
2022-11-30T17:17:49.584Z,94792.97
2022-11-30T17:20:16.470Z,94824.75
2022-11-30T17:22:43.856Z,94851.69
2022-11-30T17:25:18.277Z,94863.41
2022-11-30T17:27:44.766Z,94893.19
2022-11-30T17:30:12.183Z,94912.34
2022-11-30T17:32:38.558Z,94961.66
2022-11-30T17:35:05.247Z,94997.00
2022-11-30T17:37:31.637Z,95047.41
2022-11-30T17:39:58.768Z,95083.88
2022-11-30T17:42:25.187Z,95108.59
2022-11-30T17:44:51.539Z,95144.91
2022-11-30T17:47:17.985Z,95181.94
2022-11-30T17:49:44.355Z,95236.44
2022-11-30T17:52:10.756Z,95289.97
2022-11-30T17:54:37.130Z,95355.41
2022-11-30T17:57:03.843Z,95405.13
2022-11-30T17:59:30.182Z,95463.06
2022-11-30T18:01:56.573Z,95509.75
2022-11-30T18:04:23.099Z,95541.69
2022-11-30T18:06:49.511Z,95563.28
2022-11-30T18:09:16.108Z,95628.44
2022-11-30T18:11:42.481Z,95641.66
2022-11-30T18:14:08.855Z,95653.69
2022-11-30T18:16:37.128Z,95668.44
2022-11-30T18:19:08.288Z,95694.38
2022-11-30T18:21:34.709Z,95708.19
2022-11-30T18:24:01.073Z,95735.06
2022-11-30T18:26:27.691Z,95754.91
2022-11-30T18:28:55.536Z,95752.03
2022-11-30T18:31:22.059Z,95789.56
2022-11-30T18:33:48.859Z,95818.38
2022-11-30T18:36:15.258Z,95856.59
2022-11-30T18:38:41.684Z,95875.47
2022-11-30T18:41:08.034Z,95895.97
2022-11-30T18:43:34.706Z,95929.69
2022-11-30T18:46:05.253Z,95972.16
2022-11-30T18:48:31.702Z,96025.41
2022-11-30T18:50:58.079Z,96036.34
2022-11-30T18:53:24.493Z,96044.16
2022-11-30T18:55:50.926Z,96053.56
2022-11-30T18:58:17.317Z,96051.94
2022-11-30T19:00:43.690Z,96043.69
2022-11-30T19:03:10.104Z,96011.81
2022-11-30T19:05:38.142Z,95994.50
2022-11-30T19:08:06.365Z,95984.25
2022-11-30T19:10:34.427Z,95960.78
2022-11-30T19:13:01.643Z,95943.50
2022-11-30T19:15:27.997Z,95892.44
2022-11-30T19:17:55.085Z,95859.09
2022-11-30T19:20:21.967Z,95821.38
2022-11-30T19:22:48.354Z,95788.63
2022-11-30T19:25:18.872Z,95752.06
2022-11-30T19:27:45.670Z,95735.94
2022-11-30T19:30:12.644Z,95708.38
2022-11-30T19:32:38.989Z,95695.75
2022-11-30T19:35:05.890Z,95671.50
2022-11-30T19:37:32.252Z,95655.66
2022-11-30T19:39:58.608Z,95649.81
2022-11-30T19:42:25.033Z,95653.59
2022-11-30T19:44:51.407Z,95657.28
2022-11-30T19:47:17.775Z,95652.53
2022-11-30T19:49:45.612Z,95654.81
2022-11-30T19:52:12.017Z,95665.41
2022-11-30T19:54:38.365Z,95656.72
2022-11-30T19:57:04.709Z,95660.50
2022-11-30T19:59:31.147Z,95653.16
2022-11-30T20:01:57.572Z,95661.06
2022-11-30T20:04:24.191Z,95656.44
2022-11-30T20:06:50.560Z,95667.09
2022-11-30T20:09:16.906Z,95667.31
2022-11-30T20:11:43.340Z,95669.69
2022-11-30T20:14:14.924Z,95657.81
2022-11-30T20:16:41.311Z,95673.63
2022-11-30T20:19:07.662Z,95688.50
2022-11-30T20:21:34.753Z,95690.56
2022-11-30T20:24:02.609Z,95733.97
2022-11-30T20:26:30.814Z,95738.31
2022-11-30T20:28:58.176Z,95749.84
2022-11-30T20:31:24.763Z,95767.88
2022-11-30T20:33:51.322Z,95812.72
2022-11-30T20:36:18.280Z,95842.16
2022-11-30T20:38:44.732Z,95855.97
2022-11-30T20:41:12.799Z,95884.38
2022-11-30T20:43:39.361Z,95919.03
2022-11-30T20:46:33.003Z,95944.97
2022-11-30T20:48:59.783Z,95965.69
2022-11-30T20:51:32.055Z,95997.28
2022-11-30T20:54:00.051Z,96009.06
2022-11-30T20:56:26.416Z,96024.38
2022-11-30T20:58:52.756Z,96045.97
2022-11-30T21:01:20.849Z,96065.50
2022-11-30T21:03:47.332Z,96092.03
2022-11-30T21:06:13.864Z,96114.41
2022-11-30T21:08:40.511Z,96139.66
2022-11-30T21:11:12.069Z,96177.81
2022-11-30T21:13:38.705Z,96175.94
2022-11-30T21:16:07.170Z,96164.53
2022-11-30T21:18:34.639Z,96159.91
2022-11-30T21:21:08.420Z,96156.97
2022-11-30T21:23:34.943Z,96186.53
2022-11-30T21:26:05.421Z,96170.75
2022-11-30T21:28:37.665Z,96177.34
2022-11-30T21:31:04.710Z,96175.94
2022-11-30T21:33:31.284Z,96165.56
2022-11-30T21:35:57.626Z,96163.69
2022-11-30T21:38:23.988Z,96180.63
2022-11-30T21:40:58.137Z,96170.97
2022-11-30T21:43:24.637Z,96179.25
2022-11-30T21:46:01.714Z,96189.59
2022-11-30T21:48:29.146Z,96208.59
2022-11-30T21:50:59.399Z,96217.28
2022-11-30T21:53:26.288Z,96234.16
2022-11-30T21:55:55.666Z,96232.97
2022-11-30T21:58:22.488Z,96247.09
2022-11-30T22:00:56.217Z,96251.34
2022-11-30T22:03:22.829Z,96275.63
2022-11-30T22:06:02.501Z,96285.03
2022-11-30T22:08:29.231Z,96289.63
2022-11-30T22:11:04.545Z,96292.34
2022-11-30T22:13:31.217Z,96271.59
2022-11-30T22:15:59.159Z,96262.88
2022-11-30T22:18:25.802Z,96262.88
2022-11-30T22:20:52.179Z,96262.88
2022-11-30T22:23:18.525Z,96263.72
2022-11-30T22:25:44.886Z,96256.84
2022-11-30T22:28:11.237Z,96254.41
2022-11-30T22:30:37.591Z,96244.03
2022-11-30T22:33:03.964Z,96247.53
2022-11-30T22:35:30.329Z,96250.59
2022-11-30T22:37:56.683Z,96265.44
2022-11-30T22:40:23.079Z,96268.72
2022-11-30T22:42:49.401Z,96268.72
2022-11-30T22:45:15.823Z,96260.00
2022-11-30T22:47:42.176Z,96266.34
2022-11-30T22:50:08.836Z,96261.16
2022-11-30T22:53:01.581Z,96244.44
2022-11-30T22:55:21.612Z,96246.34
2022-11-30T22:57:48.063Z,96249.63
2022-11-30T23:00:15.209Z,96242.81
2022-11-30T23:02:41.624Z,96255.75
2022-11-30T23:05:08.212Z,96265.44
2022-11-30T23:07:34.642Z,96273.06
2022-11-30T23:10:01.031Z,96279.94
2022-11-30T23:12:57.383Z,96288.84
2022-11-30T23:15:13.816Z,96313.72
2022-11-30T23:17:40.210Z,96330.63
2022-11-30T23:20:07.103Z,96329.50
2022-11-30T23:22:35.596Z,96322.44
2022-11-30T23:25:01.942Z,96349.03
2022-11-30T23:27:28.316Z,96371.41
2022-11-30T23:29:54.674Z,96377.38
2022-11-30T23:32:21.131Z,96379.69
2022-11-30T23:34:50.680Z,96405.59
2022-11-30T23:37:17.288Z,96414.31
2022-11-30T23:39:43.660Z,96429.88
2022-11-30T23:42:10.075Z,96445.19
2022-11-30T23:44:36.425Z,96464.25
2022-11-30T23:47:03.736Z,96477.56
2022-11-30T23:49:30.157Z,96492.88
2022-11-30T23:51:58.330Z,96512.16
2022-11-30T23:54:24.690Z,96537.25
2022-11-30T23:56:51.137Z,96566.19
2022-11-30T23:59:17.543Z,96627.53
